createdAt,value
2022-08-22T00:00:20.760Z,18.90
2022-08-22T00:02:54.874Z,19.18
2022-08-22T00:06:13.568Z,18.88
2022-08-22T00:08:57.988Z,18.89
2022-08-22T00:11:41.013Z,18.88
2022-08-22T00:14:22.201Z,18.88
2022-08-22T00:17:04.671Z,18.92
2022-08-22T00:19:53.514Z,18.92
2022-08-22T00:23:10.146Z,18.92
2022-08-22T00:26:18.777Z,18.97
2022-08-22T00:29:25.855Z,18.99
2022-08-22T00:32:14.308Z,19.00
2022-08-22T00:34:58.072Z,19.03
2022-08-22T00:37:42.470Z,19.06
2022-08-22T00:40:32.913Z,19.08
2022-08-22T00:43:33.802Z,19.06
2022-08-22T00:46:32.001Z,19.05
2022-08-22T00:49:24.362Z,19.03
2022-08-22T00:52:43.736Z,19.00
2022-08-22T00:55:35.314Z,19.00
2022-08-22T00:58:28.345Z,18.97
2022-08-22T01:01:09.356Z,18.97
2022-08-22T01:04:17.411Z,19.00
2022-08-22T01:07:04.590Z,19.01
2022-08-22T01:09:51.327Z,19.03
2022-08-22T01:12:46.904Z,19.03
2022-08-22T01:15:27.424Z,19.07
2022-08-22T01:18:25.193Z,19.07
2022-08-22T01:21:50.179Z,19.07
2022-08-22T01:25:12.348Z,19.06
2022-08-22T01:28:22.883Z,19.07
2022-08-22T01:31:30.864Z,19.08
2022-08-22T01:34:35.194Z,19.07
2022-08-22T01:37:43.652Z,19.07
2022-08-22T01:40:54.063Z,19.08
2022-08-22T01:43:59.054Z,19.09
2022-08-22T01:46:38.803Z,19.10
2022-08-22T01:49:22.765Z,19.12
2022-08-22T01:52:04.490Z,19.14
2022-08-22T01:54:51.106Z,19.14
2022-08-22T01:57:34.629Z,19.14
2022-08-22T02:00:34.649Z,19.15
2022-08-22T02:03:25.227Z,19.16
2022-08-22T02:06:07.972Z,19.18
2022-08-22T02:08:53.736Z,19.18
2022-08-22T02:11:42.495Z,19.18
2022-08-22T02:14:28.931Z,19.17
2022-08-22T02:17:16.562Z,19.16
2022-08-22T02:20:00.793Z,19.15
2022-08-22T02:22:45.745Z,19.13
2022-08-22T02:25:24.407Z,19.12
2022-08-22T02:28:05.298Z,19.10
2022-08-22T02:30:55.830Z,19.12
2022-08-22T02:33:39.150Z,19.10
2022-08-22T02:36:21.382Z,19.03
2022-08-22T02:39:04.138Z,19.00
2022-08-22T02:41:50.335Z,18.99
2022-08-22T02:44:31.006Z,18.98
2022-08-22T02:47:11.977Z,18.98
2022-08-22T02:49:56.530Z,18.97
2022-08-22T02:52:37.220Z,18.98
2022-08-22T02:55:17.448Z,18.99
2022-08-22T02:57:58.655Z,18.98
2022-08-22T03:00:42.813Z,18.91
2022-08-22T03:03:25.649Z,18.86
2022-08-22T03:06:03.679Z,18.83
2022-08-22T03:08:47.578Z,18.84
2022-08-22T03:11:30.558Z,18.83
2022-08-22T03:14:10.457Z,18.83
2022-08-22T03:16:54.469Z,18.80
2022-08-22T03:19:33.328Z,18.84
2022-08-22T03:22:21.440Z,18.83
2022-08-22T03:25:03.471Z,18.80
2022-08-22T03:27:59.250Z,18.78
2022-08-22T03:30:40.001Z,18.72
2022-08-22T03:33:23.173Z,18.76
2022-08-22T03:36:22.326Z,18.72
2022-08-22T03:39:14.144Z,18.68
2022-08-22T03:42:11.950Z,18.68
2022-08-22T03:45:14.359Z,18.67
2022-08-22T03:48:07.323Z,18.69
2022-08-22T03:51:02.460Z,18.72
2022-08-22T03:54:07.683Z,18.71
2022-08-22T03:57:23.768Z,18.67
2022-08-22T04:00:11.618Z,18.63
2022-08-22T04:03:20.347Z,18.63
2022-08-22T04:06:29.708Z,18.56
2022-08-22T04:12:34.239Z,18.58
2022-08-22T04:15:39.871Z,18.60
2022-08-22T04:18:25.960Z,18.59
2022-08-22T04:21:33.489Z,18.56
2022-08-22T04:24:32.798Z,18.53
2022-08-22T04:27:14.418Z,18.51
2022-08-22T04:29:52.922Z,18.51
2022-08-22T04:32:36.901Z,18.53
2022-08-22T04:35:20.608Z,18.56
2022-08-22T04:37:57.141Z,18.53
2022-08-22T04:40:38.755Z,18.54
2022-08-22T04:43:18.277Z,18.50
2022-08-22T04:45:56.748Z,18.53
2022-08-22T04:48:37.989Z,18.51
2022-08-22T04:51:18.469Z,18.50
2022-08-22T04:54:17.149Z,18.50
2022-08-22T04:57:05.940Z,18.51
2022-08-22T04:59:39.408Z,18.51
2022-08-22T05:02:14.669Z,18.51
2022-08-22T05:04:54.506Z,18.49
2022-08-22T05:07:35.874Z,18.53
2022-08-22T05:10:15.128Z,18.54
2022-08-22T05:12:53.250Z,18.51
2022-08-22T05:15:31.250Z,18.55
2022-08-22T05:18:07.618Z,18.56
2022-08-22T05:20:44.779Z,18.60
2022-08-22T05:23:21.437Z,18.61
2022-08-22T05:25:58.000Z,18.64
2022-08-22T05:28:36.536Z,18.66
2022-08-22T05:31:13.768Z,18.67
2022-08-22T05:33:49.590Z,18.68
2022-08-22T05:36:27.807Z,18.71
2022-08-22T05:39:04.206Z,18.75
2022-08-22T05:41:40.430Z,18.72
2022-08-22T05:44:22.231Z,18.73
2022-08-22T05:47:04.158Z,18.77
2022-08-22T05:49:43.811Z,18.81
2022-08-22T05:52:26.449Z,18.90
2022-08-22T05:55:14.512Z,18.94
2022-08-22T05:57:54.758Z,18.98
2022-08-22T06:00:32.904Z,18.94
2022-08-22T06:03:18.238Z,19.03
2022-08-22T06:05:53.948Z,19.03
2022-08-22T06:08:32.713Z,19.08
2022-08-22T06:11:10.088Z,19.15
2022-08-22T06:13:47.337Z,19.16
2022-08-22T06:16:24.567Z,19.21
2022-08-22T06:18:59.752Z,19.24
2022-08-22T06:21:39.287Z,19.29
2022-08-22T06:24:19.371Z,19.29
2022-08-22T06:26:54.900Z,19.22
2022-08-22T06:29:35.795Z,19.17
2022-08-22T06:32:16.169Z,19.19
2022-08-22T06:34:50.838Z,19.10
2022-08-22T06:37:32.588Z,19.07
2022-08-22T06:40:08.106Z,18.94
2022-08-22T06:42:46.120Z,18.80
2022-08-22T06:45:23.221Z,18.82
2022-08-22T06:48:13.808Z,18.88
2022-08-22T06:50:52.972Z,18.96
2022-08-22T06:53:29.369Z,19.01
2022-08-22T06:56:06.067Z,18.99
2022-08-22T06:58:44.250Z,19.07
2022-08-22T07:01:20.049Z,19.16
2022-08-22T07:03:55.422Z,19.24
2022-08-22T07:06:36.128Z,19.26
2022-08-22T07:09:18.429Z,19.28
2022-08-22T07:11:54.811Z,19.36
2022-08-22T07:14:34.707Z,19.45
2022-08-22T07:17:12.757Z,19.56
2022-08-22T07:19:56.488Z,19.61
2022-08-22T07:22:32.460Z,19.66
2022-08-22T07:25:11.282Z,19.65
2022-08-22T07:28:16.456Z,19.69
2022-08-22T07:30:59.189Z,19.78
2022-08-22T07:33:46.044Z,19.91
2022-08-22T07:36:31.647Z,19.97
2022-08-22T07:39:26.120Z,20.04
2022-08-22T07:42:11.779Z,20.12
2022-08-22T07:45:04.940Z,20.16
2022-08-22T07:47:52.910Z,20.21
2022-08-22T07:50:32.468Z,20.29
2022-08-22T07:53:13.753Z,20.35
2022-08-22T07:55:50.030Z,20.35
2022-08-22T07:58:26.718Z,20.42
2022-08-22T08:01:00.382Z,20.46
2022-08-22T08:03:33.420Z,20.52
2022-08-22T08:06:05.860Z,20.48
2022-08-22T08:08:43.340Z,20.45
2022-08-22T08:11:19.449Z,20.40
2022-08-22T08:13:56.157Z,20.47
2022-08-22T08:16:33.171Z,20.61
2022-08-22T08:19:08.089Z,20.80
2022-08-22T08:21:43.920Z,20.83
2022-08-22T08:24:21.424Z,20.88
2022-08-22T08:27:15.333Z,20.96
2022-08-22T08:29:55.654Z,20.83
2022-08-22T08:32:32.364Z,20.93
2022-08-22T08:35:08.961Z,21.01
2022-08-22T08:37:47.471Z,21.03
2022-08-22T08:40:36.763Z,20.95
2022-08-22T08:43:28.540Z,20.93
2022-08-22T08:46:39.069Z,21.03
2022-08-22T08:49:31.260Z,21.06
2022-08-22T08:52:33.020Z,21.17
2022-08-22T08:55:22.772Z,21.24
2022-08-22T08:58:06.963Z,21.38
2022-08-22T09:00:57.721Z,21.47
2022-08-22T09:04:01.187Z,21.63
2022-08-22T09:10:11.580Z,21.73
2022-08-22T09:13:18.649Z,21.72
2022-08-22T09:16:05.515Z,21.78
2022-08-22T09:19:06.937Z,21.83
2022-08-22T09:22:17.989Z,21.86
2022-08-22T09:25:28.682Z,21.95
2022-08-22T09:28:20.231Z,21.94
2022-08-22T09:34:31.386Z,21.99
2022-08-22T09:37:18.258Z,22.15
2022-08-22T09:40:08.173Z,22.21
2022-08-22T09:42:53.255Z,22.31
2022-08-22T09:45:45.659Z,22.42
2022-08-22T09:48:43.939Z,22.41
2022-08-22T09:51:34.691Z,22.57
2022-08-22T09:54:32.889Z,22.79
2022-08-22T09:57:19.487Z,22.98
2022-08-22T10:00:22.420Z,23.19
2022-08-22T10:03:07.759Z,23.27
2022-08-22T10:05:49.423Z,23.30
2022-08-22T10:08:38.502Z,23.42
2022-08-22T10:11:30.449Z,23.52
2022-08-22T10:14:09.899Z,23.52
2022-08-22T10:17:07.541Z,23.72
2022-08-22T10:19:44.379Z,23.79
2022-08-22T10:22:44.866Z,23.75
2022-08-22T10:25:36.251Z,23.80
2022-08-22T10:28:28.669Z,23.77
2022-08-22T10:31:21.411Z,23.98
2022-08-22T10:34:04.759Z,24.09
2022-08-22T10:36:46.789Z,24.16
2022-08-22T10:39:24.769Z,24.23
2022-08-22T10:42:19.511Z,24.14
2022-08-22T10:45:12.867Z,23.93
2022-08-22T10:48:03.366Z,23.80
2022-08-22T10:50:45.242Z,23.91
2022-08-22T10:53:34.821Z,24.00
2022-08-22T10:56:16.517Z,24.20
2022-08-22T10:59:01.561Z,24.26
2022-08-22T11:01:49.100Z,24.42
2022-08-22T11:04:43.970Z,24.46
2022-08-22T11:07:44.567Z,24.50
2022-08-22T11:10:32.667Z,24.68
2022-08-22T11:13:28.790Z,24.73
2022-08-22T11:16:14.400Z,24.59
2022-08-22T11:19:24.420Z,24.30
2022-08-22T11:22:07.356Z,24.11
2022-08-22T11:25:23.780Z,23.97
2022-08-22T11:28:31.201Z,23.81
2022-08-22T11:31:16.680Z,24.11
2022-08-22T11:33:58.656Z,24.33
2022-08-22T11:36:46.455Z,24.53
2022-08-22T11:39:35.700Z,24.56
2022-08-22T11:42:16.531Z,24.42
2022-08-22T11:44:58.513Z,24.64
2022-08-22T11:47:35.850Z,24.63
2022-08-22T11:50:19.510Z,24.41
2022-08-22T11:53:09.862Z,24.30
2022-08-22T11:55:51.708Z,24.17
2022-08-22T11:58:51.648Z,24.31
2022-08-22T12:01:38.018Z,24.38
2022-08-22T12:04:20.786Z,24.18
2022-08-22T12:07:12.469Z,23.88
2022-08-22T12:09:55.428Z,23.88
2022-08-22T12:12:40.225Z,23.90
2022-08-22T12:15:23.278Z,23.81
2022-08-22T12:18:28.510Z,23.93
2022-08-22T12:21:19.329Z,24.20
2022-08-22T12:24:33.889Z,24.40
2022-08-22T12:27:31.738Z,24.56
2022-08-22T12:30:16.385Z,24.67
2022-08-22T12:44:29.113Z,25.49
2022-08-22T12:47:27.661Z,25.38
2022-08-22T12:50:25.518Z,25.57
2022-08-22T12:53:35.608Z,25.76
2022-08-22T12:56:29.128Z,25.80
2022-08-22T12:59:23.970Z,25.94
2022-08-22T13:02:01.940Z,26.16
2022-08-22T13:04:38.208Z,26.12
2022-08-22T13:07:29.045Z,26.14
2022-08-22T13:10:28.990Z,26.23
2022-08-22T13:13:03.903Z,26.30
2022-08-22T13:15:53.528Z,26.38
2022-08-22T13:18:35.832Z,26.41
2022-08-22T13:24:56.926Z,26.55
2022-08-22T13:27:51.606Z,26.60
2022-08-22T13:33:16.099Z,26.75
2022-08-22T13:39:58.661Z,26.84
2022-08-22T13:42:54.142Z,26.63
2022-08-22T13:45:57.247Z,26.54
2022-08-22T13:48:56.656Z,26.45
2022-08-22T13:51:53.120Z,26.42
2022-08-22T13:54:57.485Z,26.39
2022-08-22T13:57:51.809Z,26.53
2022-08-22T14:00:48.648Z,26.54
2022-08-22T14:03:52.023Z,26.67
2022-08-22T14:06:43.913Z,26.79
2022-08-22T14:15:12.899Z,26.80
2022-08-22T14:17:50.089Z,26.74
2022-08-22T14:20:33.619Z,26.75
2022-08-22T14:23:20.070Z,26.49
2022-08-22T14:26:32.680Z,26.48
2022-08-22T14:29:24.872Z,26.38
2022-08-22T14:32:08.825Z,26.36
2022-08-22T14:34:45.594Z,26.29
2022-08-22T14:37:25.968Z,26.19
2022-08-22T14:40:05.462Z,26.23
2022-08-22T14:42:45.387Z,26.22
2022-08-22T14:45:22.061Z,26.19
2022-08-22T14:48:29.408Z,26.20
2022-08-22T14:50:57.430Z,26.20
2022-08-22T14:53:32.021Z,26.18
2022-08-22T14:56:10.993Z,26.13
2022-08-22T14:58:58.421Z,26.17
2022-08-22T15:01:33.293Z,26.23
2022-08-22T15:04:18.851Z,26.31
2022-08-22T15:06:58.522Z,26.43
2022-08-22T15:09:35.402Z,26.65
2022-08-22T15:12:22.488Z,26.59
2022-08-22T15:14:58.540Z,26.45
2022-08-22T15:17:44.947Z,26.17
2022-08-22T15:20:28.665Z,26.03
2022-08-22T15:23:09.856Z,25.96
2022-08-22T15:25:47.003Z,25.93
2022-08-22T15:28:22.600Z,25.87
2022-08-22T15:31:06.028Z,25.83
2022-08-22T15:33:45.436Z,25.78
2022-08-22T15:36:21.729Z,25.55
2022-08-22T15:38:56.616Z,25.42
2022-08-22T15:41:45.728Z,25.10
2022-08-22T15:44:33.227Z,25.03
2022-08-22T15:47:27.086Z,25.03
2022-08-22T15:50:05.318Z,24.99
2022-08-22T15:53:10.649Z,24.96
2022-08-22T15:56:24.128Z,24.76
2022-08-22T15:59:26.738Z,24.71
2022-08-22T16:02:05.298Z,24.63
2022-08-22T16:04:47.620Z,24.53
2022-08-22T16:07:35.202Z,24.42
2022-08-22T16:10:12.587Z,24.42
2022-08-22T16:12:48.010Z,24.35
2022-08-22T16:16:01.763Z,24.26
2022-08-22T16:19:16.609Z,24.17
2022-08-22T16:22:16.455Z,24.13
2022-08-22T16:25:04.270Z,24.09
2022-08-22T16:27:37.697Z,23.91
2022-08-22T16:30:31.657Z,23.76
2022-08-22T16:33:05.050Z,23.79
2022-08-22T16:36:22.671Z,23.67
2022-08-22T16:38:58.736Z,23.67
2022-08-22T16:41:41.159Z,23.57
2022-08-22T16:44:47.527Z,23.51
2022-08-22T16:47:22.737Z,23.49
2022-08-22T16:50:05.867Z,23.49
2022-08-22T16:53:04.677Z,23.47
2022-08-22T16:55:52.299Z,23.39
2022-08-22T16:59:00.849Z,23.38
2022-08-22T17:01:39.613Z,23.36
2022-08-22T17:04:21.350Z,23.22
2022-08-22T17:07:06.517Z,23.18
2022-08-22T17:09:54.846Z,23.10
2022-08-22T17:12:42.858Z,23.08
2022-08-22T17:15:25.873Z,23.04
2022-08-22T17:18:16.195Z,22.96
2022-08-22T17:21:00.989Z,22.89
2022-08-22T17:23:45.455Z,22.89
2022-08-22T17:26:30.478Z,22.84
2022-08-22T17:29:14.820Z,22.81
2022-08-22T17:31:56.077Z,22.81
2022-08-22T17:34:41.198Z,22.73
2022-08-22T17:37:23.743Z,22.67
2022-08-22T17:40:25.462Z,22.61
2022-08-22T17:43:10.244Z,22.55
2022-08-22T17:46:01.967Z,22.51
2022-08-22T17:48:42.741Z,22.49
2022-08-22T17:51:28.635Z,22.49
2022-08-22T17:54:07.357Z,22.44
2022-08-22T17:57:05.188Z,22.39
2022-08-22T17:59:50.154Z,22.33
2022-08-22T18:02:29.288Z,22.32
2022-08-22T18:05:08.937Z,22.32
2022-08-22T18:07:57.910Z,22.27
2022-08-22T18:10:48.419Z,22.21
2022-08-22T18:13:39.001Z,22.18
2022-08-22T18:16:24.048Z,22.14
2022-08-22T18:19:12.619Z,22.08
2022-08-22T18:21:56.818Z,22.00
2022-08-22T18:24:45.620Z,21.98
2022-08-22T18:27:35.224Z,21.92
2022-08-22T18:30:21.600Z,21.85
2022-08-22T18:33:03.967Z,21.84
2022-08-22T18:35:49.970Z,21.79
2022-08-22T18:38:34.710Z,21.72
2022-08-22T18:41:17.571Z,21.71
2022-08-22T18:43:52.811Z,21.68
2022-08-22T18:46:43.588Z,21.64
2022-08-22T18:49:42.165Z,21.55
2022-08-22T18:52:22.378Z,21.48
2022-08-22T18:55:15.817Z,21.41
2022-08-22T18:58:16.728Z,21.44
2022-08-22T19:01:11.665Z,21.44
2022-08-22T19:03:56.610Z,21.43
2022-08-22T19:07:02.121Z,21.40
2022-08-22T19:09:58.814Z,21.38
2022-08-22T19:12:46.190Z,21.30
2022-08-22T19:15:29.578Z,21.31
2022-08-22T19:18:26.692Z,21.32
2022-08-22T19:21:41.223Z,21.25
2022-08-22T19:24:33.370Z,21.24
2022-08-22T19:27:36.040Z,21.24
2022-08-22T19:30:32.370Z,21.18
2022-08-22T19:33:27.757Z,21.14
2022-08-22T19:36:14.679Z,21.05
2022-08-22T19:39:04.210Z,21.15
2022-08-22T19:41:47.701Z,21.05
2022-08-22T19:44:40.553Z,21.04
2022-08-22T19:47:35.234Z,21.03
2022-08-22T19:50:25.448Z,21.01
2022-08-22T19:53:28.261Z,20.99
2022-08-22T19:56:14.419Z,21.00
2022-08-22T19:59:02.268Z,21.02
2022-08-22T20:01:54.138Z,21.02
2022-08-22T20:04:50.978Z,21.03
2022-08-22T20:07:39.952Z,21.03
2022-08-22T20:10:24.862Z,21.04
2022-08-22T20:13:12.371Z,21.04
2022-08-22T20:16:13.648Z,21.06
2022-08-22T20:19:21.629Z,21.05
2022-08-22T20:21:58.690Z,21.07
2022-08-22T20:24:40.073Z,21.10
2022-08-22T20:27:19.909Z,21.11
2022-08-22T20:30:02.571Z,21.11
2022-08-22T20:32:39.642Z,21.09
2022-08-22T20:35:17.528Z,21.06
2022-08-22T20:38:06.789Z,20.97
2022-08-22T20:40:54.746Z,21.01
2022-08-22T20:43:40.363Z,21.04
2022-08-22T20:46:27.733Z,21.04
2022-08-22T20:49:03.741Z,21.03
2022-08-22T20:51:36.993Z,21.05
2022-08-22T20:54:20.489Z,21.04
2022-08-22T20:56:56.830Z,20.99
2022-08-22T20:59:36.142Z,20.99
2022-08-22T21:02:17.641Z,20.98
2022-08-22T21:04:57.884Z,20.98
2022-08-22T21:07:37.320Z,20.99
2022-08-22T21:10:34.656Z,20.97
2022-08-22T21:13:10.985Z,20.81
2022-08-22T21:15:46.592Z,20.70
2022-08-22T21:18:31.998Z,20.58
2022-08-22T21:21:17.581Z,20.46
2022-08-22T21:24:08.049Z,20.27
2022-08-22T21:27:48.695Z,20.12
2022-08-22T21:34:55.531Z,20.25
2022-08-22T21:38:13.671Z,20.15
2022-08-22T21:40:46.186Z,20.09
2022-08-22T21:43:33.209Z,20.09
2022-08-22T21:46:06.458Z,20.07
2022-08-22T21:48:44.059Z,20.04
2022-08-22T21:51:29.849Z,20.00
2022-08-22T21:54:39.897Z,19.95
2022-08-22T21:57:35.089Z,19.89
2022-08-22T22:00:32.784Z,19.88
2022-08-22T22:03:09.908Z,19.85
2022-08-22T22:05:42.850Z,19.84
2022-08-22T22:08:15.675Z,19.80
2022-08-22T22:10:49.627Z,19.80
2022-08-22T22:13:23.894Z,19.73
2022-08-22T22:16:01.629Z,19.66
2022-08-22T22:18:35.759Z,19.58
2022-08-22T22:21:09.118Z,19.50
2022-08-22T22:23:39.738Z,19.47
2022-08-22T22:26:13.409Z,19.37
2022-08-22T22:28:48.938Z,19.36
2022-08-22T22:31:21.079Z,19.33
2022-08-22T22:33:53.551Z,19.30
2022-08-22T22:36:28.333Z,19.33
2022-08-22T22:39:02.479Z,19.32
2022-08-22T22:41:35.000Z,19.32
2022-08-22T22:44:07.959Z,19.35
2022-08-22T22:46:40.248Z,19.38
2022-08-22T22:49:12.709Z,19.44
2022-08-22T22:51:45.129Z,19.37
2022-08-22T22:54:17.509Z,19.31
2022-08-22T22:56:50.018Z,19.29
2022-08-22T22:59:25.967Z,19.30
2022-08-22T23:02:08.019Z,19.27
2022-08-22T23:04:43.430Z,19.25
2022-08-22T23:07:19.387Z,19.24
2022-08-22T23:09:51.798Z,19.25
2022-08-22T23:12:29.439Z,19.22
2022-08-22T23:15:02.070Z,19.20
2022-08-22T23:17:34.398Z,19.13
2022-08-22T23:20:07.907Z,19.08
2022-08-22T23:22:43.078Z,19.09
2022-08-22T23:25:15.522Z,19.08
2022-08-22T23:27:48.702Z,18.90
2022-08-22T23:30:25.411Z,18.93
2022-08-22T23:32:58.408Z,18.93
2022-08-22T23:35:31.198Z,18.92
2022-08-22T23:38:03.488Z,18.93
2022-08-22T23:40:35.728Z,18.88
2022-08-22T23:43:07.989Z,18.85
2022-08-22T23:45:40.470Z,18.82
2022-08-22T23:48:12.631Z,18.79
2022-08-22T23:50:45.248Z,18.76
2022-08-22T23:53:17.529Z,18.72
2022-08-22T23:55:49.969Z,18.69
2022-08-22T23:58:22.329Z,18.69
